createdAt,value
2018-07-08T00:02:10.597Z,98509.31
2018-07-08T00:04:42.613Z,98512.09
2018-07-08T00:07:14.720Z,98515.67
2018-07-08T00:09:45.884Z,98514.87
2018-07-08T00:12:16.334Z,98511.23
2018-07-08T00:14:47.557Z,98517.64
2018-07-08T00:17:18.074Z,98521.36
2018-07-08T00:19:48.911Z,98519.78
2018-07-08T00:22:20.220Z,98521.58
2018-07-08T00:24:51.570Z,98519.66
2018-07-08T00:27:22.063Z,98519.80
2018-07-08T00:29:52.319Z,98524.05
2018-07-08T00:32:23.446Z,98524.34
2018-07-08T00:34:53.800Z,98521.25
2018-07-08T00:37:25.390Z,98526.86
2018-07-08T00:39:56.503Z,98528.26
2018-07-08T00:42:27.625Z,98524.84
2018-07-08T00:44:58.980Z,98524.19
2018-07-08T00:47:30.333Z,98523.64
2018-07-08T00:50:00.950Z,98526.42
2018-07-08T00:52:33.322Z,98520.67
2018-07-08T00:55:04.835Z,98529.35
2018-07-08T00:57:35.153Z,98527.27
2018-07-08T01:00:05.623Z,98526.19
2018-07-08T01:02:35.845Z,98527.48
2018-07-08T01:05:07.982Z,98526.30
2018-07-08T01:07:39.768Z,98523.55
2018-07-08T01:10:11.985Z,98529.03
2018-07-08T01:12:48.867Z,98533.59
2018-07-08T01:15:21.290Z,98527.84
2018-07-08T01:17:52.025Z,98529.50
2018-07-08T01:20:23.481Z,98525.92
2018-07-08T01:22:55.248Z,98527.27
2018-07-08T01:25:37.353Z,98531.79
2018-07-08T01:28:09.050Z,98528.48
2018-07-08T01:30:40.402Z,98527.15
2018-07-08T01:33:10.913Z,98528.53
2018-07-08T01:35:42.715Z,98530.23
2018-07-08T01:38:14.614Z,98531.57
2018-07-08T01:40:46.799Z,98530.20
2018-07-08T01:43:17.237Z,98523.47
2018-07-08T01:45:49.275Z,98530.98
2018-07-08T01:48:19.611Z,98526.84
2018-07-08T01:50:51.522Z,98520.77
2018-07-08T01:53:21.959Z,98520.08
2018-07-08T01:55:52.313Z,98518.88
2018-07-08T01:58:23.463Z,98514.02
2018-07-08T02:00:54.904Z,98518.30
2018-07-08T02:03:25.521Z,98517.98
2018-07-08T02:05:56.316Z,98515.29
2018-07-08T02:08:27.445Z,98518.02
2018-07-08T02:10:57.927Z,98520.47
2018-07-08T02:13:30.216Z,98521.60
2018-07-08T02:16:00.606Z,98523.66
2018-07-08T02:18:31.951Z,98528.20
2018-07-08T02:21:03.314Z,98524.53
2018-07-08T02:23:35.806Z,98523.28
2018-07-08T02:26:07.093Z,98528.05
2018-07-08T02:28:39.635Z,98535.25
2018-07-08T02:31:11.675Z,98528.50
2018-07-08T02:33:43.240Z,98537.39
2018-07-08T02:36:15.621Z,98539.17
2018-07-08T02:38:49.067Z,98538.75
2018-07-08T02:41:23.805Z,98541.73
2018-07-08T02:43:55.236Z,98545.73
2018-07-08T02:46:28.799Z,98544.52
2018-07-08T02:49:00.190Z,98547.48
2018-07-08T02:51:32.321Z,98545.28
2018-07-08T02:54:04.355Z,98543.77
2018-07-08T02:56:38.456Z,98542.98
2018-07-08T02:59:10.742Z,98550.50
2018-07-08T03:01:43.728Z,98547.42
2018-07-08T03:04:15.151Z,98544.70
2018-07-08T03:06:47.840Z,98546.69
2018-07-08T03:09:19.750Z,98546.39
2018-07-08T03:11:53.175Z,98550.72
2018-07-08T03:14:25.761Z,98549.80
2018-07-08T03:16:58.100Z,98551.04
2018-07-08T03:19:30.017Z,98545.80
2018-07-08T03:22:01.662Z,98556.65
2018-07-08T03:24:34.603Z,98549.94
2018-07-08T03:27:04.867Z,98554.11
2018-07-08T03:29:35.434Z,98549.59
2018-07-08T03:32:06.020Z,98553.17
2018-07-08T03:34:40.359Z,98550.84
2018-07-08T03:37:11.223Z,98546.52
2018-07-08T03:39:42.005Z,98552.60
2018-07-08T03:42:12.408Z,98550.47
2018-07-08T03:44:43.763Z,98553.52
2018-07-08T03:47:15.747Z,98560.19
2018-07-08T03:49:46.966Z,98560.02
2018-07-08T03:52:19.146Z,98559.47
2018-07-08T03:54:49.955Z,98561.11
2018-07-08T03:57:21.157Z,98566.05
2018-07-08T03:59:52.136Z,98568.31
2018-07-08T04:02:22.641Z,98567.13
2018-07-08T04:04:53.635Z,98567.52
2018-07-08T04:07:24.326Z,98568.31
2018-07-08T04:09:54.915Z,98565.00
2018-07-08T04:12:26.153Z,98569.94
2018-07-08T04:14:56.495Z,98572.48
2018-07-08T04:17:27.206Z,98564.26
2018-07-08T04:19:57.612Z,98574.06
2018-07-08T04:22:28.679Z,98570.45
2018-07-08T04:24:59.782Z,98570.15
2018-07-08T04:27:31.604Z,98570.24
2018-07-08T04:30:02.849Z,98567.34
2018-07-08T04:32:33.940Z,98559.72
2018-07-08T04:35:09.631Z,98563.78
2018-07-08T04:37:41.362Z,98555.89
2018-07-08T04:40:13.665Z,98558.72
2018-07-08T04:42:44.367Z,98558.19
2018-07-08T04:45:16.427Z,98559.95
2018-07-08T04:47:47.667Z,98565.65
2018-07-08T04:50:19.729Z,98551.73
2018-07-08T04:52:50.378Z,98553.27
2018-07-08T04:55:20.708Z,98554.30
2018-07-08T04:57:51.078Z,98552.84
2018-07-08T05:00:22.156Z,98550.91
2018-07-08T05:02:53.391Z,98550.54
2018-07-08T05:05:24.043Z,98555.55
2018-07-08T05:07:55.181Z,98558.16
2018-07-08T05:10:25.707Z,98555.83
2018-07-08T05:12:56.460Z,98559.71
2018-07-08T05:15:27.398Z,98555.93
2018-07-08T05:17:57.937Z,98556.86
2018-07-08T05:20:29.776Z,98557.44
2018-07-08T05:23:00.930Z,98559.71
2018-07-08T05:25:32.109Z,98554.55
2018-07-08T05:28:02.541Z,98553.73
2018-07-08T05:30:33.071Z,98556.91
2018-07-08T05:33:03.718Z,98562.52
2018-07-08T05:35:35.003Z,98561.88
2018-07-08T05:38:06.944Z,98562.52
2018-07-08T05:40:37.834Z,98563.75
2018-07-08T05:43:09.765Z,98564.22
2018-07-08T05:45:43.414Z,98564.69
2018-07-08T05:48:15.908Z,98561.88
2018-07-08T05:50:46.806Z,98566.77
2018-07-08T05:53:18.379Z,98565.16
2018-07-08T05:55:50.324Z,98566.00
2018-07-08T05:58:21.580Z,98559.91
2018-07-08T06:00:51.921Z,98566.35
2018-07-08T06:03:22.333Z,98562.23
2018-07-08T06:05:53.225Z,98555.04
2018-07-08T06:08:24.494Z,98557.64
2018-07-08T06:10:58.105Z,98559.21
2018-07-08T06:13:29.610Z,98561.30
2018-07-08T06:16:01.624Z,98561.97
2018-07-08T06:18:32.863Z,98561.21
2018-07-08T06:21:04.296Z,98567.56
2018-07-08T06:23:36.658Z,98554.70
2018-07-08T06:26:10.089Z,98560.31
2018-07-08T06:28:41.756Z,98554.83
2018-07-08T06:31:13.321Z,98548.58
2018-07-08T06:33:44.512Z,98542.92
2018-07-08T06:36:15.889Z,98545.73
2018-07-08T06:38:47.541Z,98548.37
2018-07-08T06:41:24.445Z,98553.05
2018-07-08T06:43:57.364Z,98550.64
2018-07-08T06:46:28.282Z,98552.18
2018-07-08T06:48:58.886Z,98555.70
2018-07-08T06:51:29.725Z,98553.06
2018-07-08T06:54:01.120Z,98561.48
2018-07-08T06:56:31.876Z,98565.80
2018-07-08T06:59:02.895Z,98562.65
2018-07-08T07:01:33.313Z,98570.37
2018-07-08T07:04:04.585Z,98564.34
2018-07-08T07:06:35.537Z,98572.09
2018-07-08T07:09:11.715Z,98567.20
2018-07-08T07:11:42.621Z,98563.48
2018-07-08T07:14:13.204Z,98562.23
2018-07-08T07:16:43.555Z,98568.13
2018-07-08T07:19:13.893Z,98561.89
2018-07-08T07:21:44.423Z,98567.91
2018-07-08T07:24:14.760Z,98567.62
2018-07-08T07:26:46.639Z,98568.27
2018-07-08T07:29:18.182Z,98562.81
2018-07-08T07:31:49.253Z,98561.46
2018-07-08T07:34:19.615Z,98565.23
2018-07-08T07:36:51.333Z,98557.81
2018-07-08T07:39:21.886Z,98558.94
2018-07-08T07:41:52.451Z,98558.45
2018-07-08T07:44:23.416Z,98548.41
2018-07-08T07:46:54.208Z,98550.59
2018-07-08T07:49:24.694Z,98549.20
2018-07-08T07:51:57.533Z,98548.29
2018-07-08T07:54:27.822Z,98553.15
2018-07-08T07:56:58.420Z,98538.66
2018-07-08T07:59:29.159Z,98547.41
2018-07-08T08:02:00.436Z,98550.64
2018-07-08T08:04:31.809Z,98548.58
2018-07-08T08:07:03.015Z,98544.59
2018-07-08T08:09:33.378Z,98544.95
2018-07-08T08:12:05.207Z,98546.16
2018-07-08T08:14:35.562Z,98544.40
2018-07-08T08:17:06.741Z,98546.70
2018-07-08T08:19:38.249Z,98537.10
2018-07-08T08:22:10.118Z,98548.59
2018-07-08T08:24:42.220Z,98538.53
2018-07-08T08:27:13.605Z,98536.08
2018-07-08T08:29:44.338Z,98538.58
2018-07-08T08:32:18.917Z,98542.14
2018-07-08T08:35:09.251Z,98540.83
2018-07-08T08:37:43.472Z,98537.98
2018-07-08T08:40:16.095Z,98546.97
2018-07-08T08:42:46.807Z,98544.42
2018-07-08T08:45:19.413Z,98550.13
2018-07-08T08:47:51.133Z,98536.11
2018-07-08T08:50:22.175Z,98531.70
2018-07-08T08:52:52.751Z,98538.81
2018-07-08T08:55:25.541Z,98533.44
2018-07-08T08:58:03.629Z,98539.76
2018-07-08T09:00:35.211Z,98536.03
2018-07-08T09:03:06.285Z,98529.17
2018-07-08T09:05:37.697Z,98533.52
2018-07-08T09:08:08.923Z,98525.14
2018-07-08T09:10:40.710Z,98524.63
2018-07-08T09:13:16.237Z,98521.13
2018-07-08T09:15:47.863Z,98517.09
2018-07-08T09:18:19.274Z,98519.03
2018-07-08T09:20:49.903Z,98516.05
2018-07-08T09:23:21.638Z,98521.81
2018-07-08T09:25:52.333Z,98517.52
2018-07-08T09:28:23.681Z,98517.66
2018-07-08T09:30:54.203Z,98525.58
2018-07-08T09:33:25.630Z,98527.51
2018-07-08T09:35:56.578Z,98519.76
2018-07-08T09:38:26.892Z,98516.73
2018-07-08T09:40:58.086Z,98517.92
2018-07-08T09:43:29.405Z,98507.29
2018-07-08T09:45:59.839Z,98509.00
2018-07-08T09:48:30.876Z,98513.02
2018-07-08T09:51:03.600Z,98506.84
2018-07-08T09:53:35.253Z,98496.48
2018-07-08T09:56:05.642Z,98507.09
2018-07-08T09:58:36.213Z,98506.38
2018-07-08T10:01:06.965Z,98498.45
2018-07-08T10:03:37.553Z,98507.38
2018-07-08T10:06:08.241Z,98502.66
2018-07-08T10:08:39.543Z,98498.36
2018-07-08T10:11:10.731Z,98494.33
2018-07-08T10:13:41.698Z,98498.48
2018-07-08T10:16:12.374Z,98500.41
2018-07-08T10:18:42.755Z,98502.28
2018-07-08T10:21:13.730Z,98497.45
2018-07-08T10:23:44.164Z,98496.09
2018-07-08T10:26:16.307Z,98503.55
2018-07-08T10:28:47.378Z,98499.80
2018-07-08T10:31:18.093Z,98499.91
2018-07-08T10:33:56.800Z,98493.20
2018-07-08T10:36:28.600Z,98494.78
2018-07-08T10:38:59.152Z,98488.43
2018-07-08T10:41:30.226Z,98489.68
2018-07-08T10:44:02.892Z,98486.58
2018-07-08T10:46:33.158Z,98485.49
2018-07-08T10:49:05.742Z,98484.37
2018-07-08T10:51:36.780Z,98482.98
2018-07-08T10:54:08.560Z,98484.52
2018-07-08T10:56:39.875Z,98485.74
2018-07-08T10:59:10.515Z,98481.48
2018-07-08T11:01:41.966Z,98476.67
2018-07-08T11:04:12.912Z,98471.80
2018-07-08T11:06:45.539Z,98470.07
2018-07-08T11:09:16.140Z,98464.09
2018-07-08T11:11:46.697Z,98472.62
2018-07-08T11:14:17.476Z,98467.85
2018-07-08T11:16:49.094Z,98468.32
2018-07-08T11:19:20.293Z,98449.41
2018-07-08T11:21:51.430Z,98456.16
2018-07-08T11:24:22.022Z,98450.62
2018-07-08T11:26:53.368Z,98455.66
2018-07-08T11:29:25.113Z,98452.16
2018-07-08T11:31:56.429Z,98447.94
2018-07-08T11:34:27.125Z,98454.55
2018-07-08T11:36:57.537Z,98446.83
2018-07-08T11:39:29.097Z,98442.97
2018-07-08T11:42:00.373Z,98443.50
2018-07-08T11:44:32.439Z,98443.34
2018-07-08T11:47:03.344Z,98437.05
2018-07-08T11:49:34.485Z,98441.78
2018-07-08T11:52:06.016Z,98443.88
2018-07-08T11:54:36.495Z,98442.22
2018-07-08T11:57:07.652Z,98439.82
2018-07-08T11:59:38.557Z,98437.87
2018-07-08T12:02:10.084Z,98437.61
2018-07-08T12:04:41.601Z,98433.22
2018-07-08T12:07:12.167Z,98432.38
2018-07-08T12:09:44.147Z,98437.72
2018-07-08T12:12:15.034Z,98436.26
2018-07-08T12:14:45.469Z,98433.52
2018-07-08T12:17:16.518Z,98425.58
2018-07-08T12:19:48.001Z,98423.28
2018-07-08T12:22:19.516Z,98428.31
2018-07-08T12:24:50.481Z,98425.83
2018-07-08T12:27:21.428Z,98426.28
2018-07-08T12:29:52.004Z,98429.19
2018-07-08T12:32:22.833Z,98424.91
2018-07-08T12:34:54.097Z,98429.23
2018-07-08T12:37:25.869Z,98419.18
2018-07-08T12:39:56.699Z,98422.27
2018-07-08T12:42:27.723Z,98416.73
2018-07-08T12:44:59.137Z,98419.62
2018-07-08T12:47:30.126Z,98417.30
2018-07-08T12:50:07.211Z,98410.06
2018-07-08T12:52:38.248Z,98404.96
2018-07-08T12:55:09.816Z,98414.70
2018-07-08T12:57:41.063Z,98415.63
2018-07-08T13:00:11.404Z,98415.05
2018-07-08T13:02:41.768Z,98415.22
2018-07-08T13:05:13.126Z,98413.15
2018-07-08T13:07:45.090Z,98416.23
2018-07-08T13:10:15.551Z,98415.87
2018-07-08T13:12:46.906Z,98409.61
2018-07-08T13:15:18.091Z,98413.10
2018-07-08T13:17:49.650Z,98408.99
2018-07-08T13:20:20.924Z,98404.47
2018-07-08T13:22:52.116Z,98406.33
2018-07-08T13:25:22.501Z,98402.46
2018-07-08T13:27:54.240Z,98404.57
2018-07-08T13:30:27.596Z,98414.69
2018-07-08T13:32:58.538Z,98393.36
2018-07-08T13:35:29.525Z,98396.09
2018-07-08T13:38:00.365Z,98401.20
2018-07-08T13:40:33.228Z,98400.72
2018-07-08T13:43:04.307Z,98402.95
2018-07-08T13:45:38.172Z,98403.23
2018-07-08T13:48:09.856Z,98400.09
2018-07-08T13:50:41.986Z,98394.30
2018-07-08T13:53:13.317Z,98390.69
2018-07-08T13:55:46.171Z,98398.30
2018-07-08T13:58:17.726Z,98404.00
2018-07-08T14:00:48.584Z,98398.86
2018-07-08T14:03:19.646Z,98394.89
2018-07-08T14:05:50.309Z,98398.23
2018-07-08T14:08:21.789Z,98399.80
2018-07-08T14:10:52.374Z,98393.34
2018-07-08T14:13:23.539Z,98395.91
2018-07-08T14:15:55.104Z,98384.42
2018-07-08T14:18:27.396Z,98389.09
2018-07-08T14:20:58.730Z,98384.08
2018-07-08T14:23:30.663Z,98376.20
2018-07-08T14:26:01.320Z,98377.55
2018-07-08T14:28:33.430Z,98370.66
2018-07-08T14:31:04.715Z,98370.11
2018-07-08T14:33:35.638Z,98382.73
2018-07-08T14:36:06.546Z,98374.30
2018-07-08T14:38:37.160Z,98368.23
2018-07-08T14:41:07.476Z,98364.38
2018-07-08T14:43:40.130Z,98362.62
2018-07-08T14:46:11.244Z,98372.39
2018-07-08T14:48:43.529Z,98375.88
2018-07-08T14:51:14.422Z,98368.39
2018-07-08T14:53:45.022Z,98368.74
2018-07-08T14:56:16.382Z,98372.66
2018-07-08T14:58:47.630Z,98364.78
2018-07-08T15:01:19.093Z,98360.89
2018-07-08T15:03:50.326Z,98366.28
2018-07-08T15:06:21.442Z,98364.53
2018-07-08T15:08:52.837Z,98369.08
2018-07-08T15:11:24.227Z,98365.31
2018-07-08T15:13:54.823Z,98353.63
2018-07-08T15:16:26.799Z,98358.69
2018-07-08T15:18:57.655Z,98356.63
2018-07-08T15:21:29.206Z,98357.61
2018-07-08T15:24:00.914Z,98361.42
2018-07-08T15:26:31.551Z,98357.28
2018-07-08T15:29:03.302Z,98356.83
2018-07-08T15:31:34.531Z,98358.06
2018-07-08T15:34:04.928Z,98358.84
2018-07-08T15:36:36.000Z,98364.30
2018-07-08T15:39:07.968Z,98352.33
2018-07-08T15:41:38.590Z,98345.11
2018-07-08T15:44:09.401Z,98347.14
2018-07-08T15:46:40.900Z,98345.48
2018-07-08T15:49:12.679Z,98331.09
2018-07-08T15:51:45.471Z,98342.80
2018-07-08T15:54:17.140Z,98326.58
2018-07-08T15:56:48.928Z,98337.81
2018-07-08T15:59:20.261Z,98336.66
2018-07-08T16:01:51.348Z,98332.67
2018-07-08T16:04:24.438Z,98327.23
2018-07-08T16:06:55.546Z,98333.05
2018-07-08T16:09:25.736Z,98325.70
2018-07-08T16:11:56.453Z,98328.38
2018-07-08T16:14:27.159Z,98330.08
2018-07-08T16:16:58.835Z,98328.93
2018-07-08T16:19:29.954Z,98328.86
2018-07-08T16:22:02.056Z,98329.84
2018-07-08T16:24:34.008Z,98317.47
2018-07-08T16:27:06.172Z,98325.77
2018-07-08T16:29:37.688Z,98323.67
2018-07-08T16:32:09.114Z,98324.97
2018-07-08T16:34:39.716Z,98320.92
2018-07-08T16:37:10.541Z,98331.50
2018-07-08T16:39:42.887Z,98319.38
2018-07-08T16:42:15.667Z,98320.78
2018-07-08T16:44:48.351Z,98320.03
2018-07-08T16:47:18.815Z,98315.23
2018-07-08T16:49:51.421Z,98323.33
2018-07-08T16:52:22.831Z,98313.73
2018-07-08T16:54:54.379Z,98326.03
2018-07-08T16:57:26.108Z,98320.72
2018-07-08T16:59:57.301Z,98328.62
2018-07-08T17:02:32.209Z,98321.52
2018-07-08T17:05:03.874Z,98320.79
2018-07-08T17:07:34.393Z,98320.83
2018-07-08T17:10:05.703Z,98327.84
2018-07-08T17:12:36.611Z,98327.17
2018-07-08T17:15:09.003Z,98330.57
2018-07-08T17:17:39.703Z,98335.07
2018-07-08T17:20:11.238Z,98335.91
2018-07-08T17:22:44.135Z,98328.84
2018-07-08T17:25:16.418Z,98331.52
2018-07-08T17:27:48.328Z,98330.11
2018-07-08T17:30:29.075Z,98338.17
2018-07-08T17:33:03.441Z,98333.67
2018-07-08T17:35:37.387Z,98330.99
2018-07-08T17:38:09.352Z,98333.17
2018-07-08T17:40:42.148Z,98337.67
2018-07-08T17:43:13.025Z,98327.59
2018-07-08T17:45:49.880Z,98335.63
2018-07-08T17:48:34.245Z,98340.50
2018-07-08T17:51:17.185Z,98337.47
2018-07-08T17:53:50.015Z,98337.52
2018-07-08T17:56:21.018Z,98335.97
2018-07-08T17:58:52.376Z,98339.98
2018-07-08T18:01:24.012Z,98343.30
2018-07-08T18:03:58.282Z,98349.13
2018-07-08T18:06:30.302Z,98344.59
2018-07-08T18:09:03.315Z,98349.10
2018-07-08T18:11:35.242Z,98346.74
2018-07-08T18:14:07.010Z,98350.88
2018-07-08T18:16:38.194Z,98354.83
2018-07-08T18:19:09.930Z,98355.83
2018-07-08T18:21:41.140Z,98350.47
2018-07-08T18:24:12.332Z,98356.81
2018-07-08T18:26:43.962Z,98356.77
2018-07-08T18:29:14.894Z,98349.40
2018-07-08T18:31:45.228Z,98354.11
2018-07-08T18:34:16.020Z,98349.48
2018-07-08T18:36:46.584Z,98357.23
2018-07-08T18:39:17.429Z,98361.75
2018-07-08T18:41:49.375Z,98367.91
2018-07-08T18:44:20.733Z,98367.33
2018-07-08T18:46:52.978Z,98364.52
2018-07-08T18:49:23.288Z,98369.97
2018-07-08T18:51:54.040Z,98381.67
2018-07-08T18:54:25.304Z,98380.44
2018-07-08T18:56:56.530Z,98378.27
2018-07-08T18:59:27.146Z,98383.25
2018-07-08T19:01:57.872Z,98394.20
2018-07-08T19:04:29.398Z,98394.77
2018-07-08T19:07:00.271Z,98393.15
2018-07-08T19:09:31.292Z,98399.73
2018-07-08T19:12:03.902Z,98401.45
2018-07-08T19:14:36.039Z,98407.16
2018-07-08T19:17:07.372Z,98411.70
2018-07-08T19:19:38.115Z,98411.58
2018-07-08T19:22:09.174Z,98411.45
2018-07-08T19:24:40.154Z,98410.38
2018-07-08T19:27:11.441Z,98420.00
2018-07-08T19:29:43.361Z,98420.41
2018-07-08T19:32:14.477Z,98420.43
2018-07-08T19:34:45.125Z,98422.78
2018-07-08T19:37:17.287Z,98426.27
2018-07-08T19:39:48.645Z,98428.59
2018-07-08T19:42:19.676Z,98431.48
2018-07-08T19:44:50.431Z,98436.88
2018-07-08T19:47:22.045Z,98442.23
2018-07-08T19:49:52.587Z,98439.54
2018-07-08T19:52:24.621Z,98447.35
2018-07-08T19:54:54.799Z,98443.91
2018-07-08T19:57:27.170Z,98440.98
2018-07-08T19:59:57.518Z,98439.48
2018-07-08T20:02:29.223Z,98439.34
2018-07-08T20:05:01.338Z,98442.84
2018-07-08T20:07:33.138Z,98450.14
2018-07-08T20:10:05.128Z,98449.95
2018-07-08T20:12:35.406Z,98447.88
2018-07-08T20:15:06.569Z,98455.61
2018-07-08T20:17:37.638Z,98455.57
2018-07-08T20:20:09.543Z,98464.34
2018-07-08T20:22:40.202Z,98461.81
2018-07-08T20:25:11.615Z,98463.08
2018-07-08T20:27:43.595Z,98465.73
2018-07-08T20:30:14.829Z,98457.98
2018-07-08T20:32:45.547Z,98465.46
2018-07-08T20:35:17.966Z,98455.49
2018-07-08T20:37:48.655Z,98464.62
2018-07-08T20:40:19.216Z,98463.05
2018-07-08T20:42:49.835Z,98462.00
2018-07-08T20:45:21.289Z,98461.72
2018-07-08T20:47:52.390Z,98474.34
2018-07-08T20:50:24.510Z,98468.78
2018-07-08T20:52:56.405Z,98465.86
2018-07-08T20:55:26.976Z,98469.68
2018-07-08T20:57:58.148Z,98468.31
2018-07-08T21:00:28.605Z,98470.05
2018-07-08T21:02:59.011Z,98476.77
2018-07-08T21:05:29.377Z,98473.91
2018-07-08T21:08:00.203Z,98471.67
2018-07-08T21:10:31.388Z,98474.09
2018-07-08T21:13:03.129Z,98479.66
2018-07-08T21:15:33.571Z,98484.03
2018-07-08T21:18:04.382Z,98483.19
2018-07-08T21:20:35.643Z,98483.80
2018-07-08T21:23:06.442Z,98478.25
2018-07-08T21:25:37.698Z,98482.48
2018-07-08T21:28:08.496Z,98485.11
2018-07-08T21:30:39.974Z,98482.34
2018-07-08T21:33:11.123Z,98486.58
2018-07-08T21:35:41.843Z,98484.77
2018-07-08T21:38:13.798Z,98488.12
2018-07-08T21:40:47.762Z,98489.80
2018-07-08T21:43:19.634Z,98488.14
2018-07-08T21:45:50.249Z,98495.23
2018-07-08T21:48:21.209Z,98491.27
2018-07-08T21:50:51.905Z,98490.19
2018-07-08T21:53:22.623Z,98490.52
2018-07-08T21:55:54.189Z,98489.46
2018-07-08T21:58:25.579Z,98488.86
2018-07-08T22:01:15.632Z,98487.28
2018-07-08T22:03:50.064Z,98487.74
2018-07-08T22:06:21.992Z,98494.99
2018-07-08T22:08:53.835Z,98496.19
2018-07-08T22:11:24.934Z,98495.97
2018-07-08T22:13:56.072Z,98499.58
2018-07-08T22:16:27.188Z,98495.58
2018-07-08T22:18:59.030Z,98498.97
2018-07-08T22:21:29.850Z,98496.79
2018-07-08T22:24:01.930Z,98496.68
2018-07-08T22:26:33.207Z,98494.97
2018-07-08T22:29:07.007Z,98494.63
2018-07-08T22:31:41.130Z,98492.95
2018-07-08T22:34:13.199Z,98495.95
2018-07-08T22:36:45.271Z,98497.61
2018-07-08T22:39:16.076Z,98497.98
2018-07-08T22:41:46.666Z,98500.48
2018-07-08T22:44:17.132Z,98504.95
2018-07-08T22:46:48.200Z,98502.51
2018-07-08T22:49:23.111Z,98498.09
2018-07-08T22:51:57.645Z,98500.78
2018-07-08T22:54:29.213Z,98505.66
2018-07-08T22:56:59.752Z,98506.04
2018-07-08T22:59:31.212Z,98502.20
2018-07-08T23:02:12.589Z,98501.66
2018-07-08T23:04:47.796Z,98503.33
2018-07-08T23:07:18.444Z,98505.20
2018-07-08T23:09:49.339Z,98501.33
2018-07-08T23:12:19.715Z,98509.22
2018-07-08T23:14:50.980Z,98499.09
2018-07-08T23:17:22.177Z,98509.48
2018-07-08T23:19:53.730Z,98510.39
2018-07-08T23:22:33.967Z,98503.95
2018-07-08T23:25:06.128Z,98504.42
2018-07-08T23:27:37.079Z,98506.06
2018-07-08T23:30:08.057Z,98510.88
2018-07-08T23:32:39.579Z,98509.77
2018-07-08T23:35:10.261Z,98507.47
2018-07-08T23:37:40.555Z,98505.68
2018-07-08T23:40:11.151Z,98504.91
2018-07-08T23:42:42.461Z,98501.15
2018-07-08T23:45:18.321Z,98509.27
2018-07-08T23:47:49.973Z,98509.64
2018-07-08T23:50:20.870Z,98509.98
2018-07-08T23:52:51.505Z,98504.53
2018-07-08T23:55:22.057Z,98500.64
2018-07-08T23:57:52.864Z,98502.81
